Time;durP1;ratioP1;P1;durP2;ratioP2;P2;SDS_P1;SDS_P2;PMS_P1;PMS_P2;Temp;Humidity;BMP_temperature;BMP_pressure;BME280_temperature;BME280_humidity;BME280_pressure;Samples;Min_cycle;Max_cycle;Signal;HPM_P1;HPM_P2
2022/06/11 00:01:34;;;;;;;7.33;3.80;;;16.00;13.60;;;;;;4969895;28;20411;-75
2022/06/11 00:04:04;;;;;;;7.30;3.83;;;16.00;10.10;;;;;;4971276;28;20942;-74
2022/06/11 00:06:33;;;;;;;7.53;3.50;;;16.10;12.40;;;;;;4966097;28;20444;-75
2022/06/11 00:08:59;;;;;;;4.40;3.57;;;16.10;12.40;;;;;;4970212;28;20466;-75
2022/06/11 00:11:25;;;;;;;5.33;4.10;;;16.10;11.90;;;;;;4969435;28;20474;-75
2022/06/11 00:13:51;;;;;;;4.50;3.13;;;16.10;13.00;;;;;;4971518;28;20258;-75
2022/06/11 00:16:19;;;;;;;6.67;3.60;;;16.00;13.60;;;;;;4962404;28;20446;-75
2022/06/11 00:18:47;;;;;;;4.23;3.40;;;16.00;13.90;;;;;;4969285;28;20470;-75
2022/06/11 00:21:13;;;;;;;5.00;3.60;;;16.00;14.80;;;;;;4969989;28;20685;-74
2022/06/11 00:23:40;;;;;;;3.97;3.23;;;16.00;13.50;;;;;;4970510;28;20493;-75
2022/06/11 00:26:07;;;;;;;7.70;4.20;;;16.10;14.60;;;;;;4971494;28;20473;-73
2022/06/11 00:28:32;;;;;;;5.10;3.70;;;16.00;14.10;;;;;;4969620;28;20773;-75
2022/06/11 00:30:59;;;;;;;5.00;3.80;;;15.90;14.90;;;;;;4970798;28;20458;-74
2022/06/11 00:33:24;;;;;;;6.20;3.60;;;15.90;14.30;;;;;;4970003;28;20635;-75
2022/06/11 00:35:51;;;;;;;5.40;3.80;;;15.80;14.30;;;;;;4970670;28;20457;-75
2022/06/11 00:38:18;;;;;;;4.93;3.57;;;15.80;13.80;;;;;;4970135;28;20643;-73
2022/06/11 00:40:47;;;;;;;5.73;3.90;;;15.80;15.50;;;;;;4971561;28;20426;-75
2022/06/11 00:43:17;;;;;;;5.70;3.90;;;15.70;16.40;;;;;;4967659;28;20427;-74
2022/06/11 00:46:00;;;;;;;5.57;4.00;;;15.80;14.50;;;;;;4976022;28;20411;-74
2022/06/11 00:48:33;;;;;;;5.00;4.07;;;15.70;15.90;;;;;;4950624;28;20416;-75
2022/06/11 00:51:02;;;;;;;4.53;3.90;;;15.70;15.80;;;;;;4950510;29;20459;-75
2022/06/11 00:53:36;;;;;;;5.20;3.80;;;15.60;16.70;;;;;;4951098;28;20439;-75
2022/06/11 00:56:05;;;;;;;5.70;3.60;;;15.60;18.30;;;;;;4959423;28;20937;-74
2022/06/11 00:58:37;;;;;;;6.83;3.60;;;15.70;18.30;;;;;;4967022;28;20434;-73
2022/06/11 01:01:04;;;;;;;5.07;3.47;;;15.60;17.60;;;;;;4964622;28;20512;-74
2022/06/11 01:03:35;;;;;;;7.43;4.13;;;15.50;20.00;;;;;;4958303;28;20421;-74
2022/06/11 01:06:23;;;;;;;4.40;3.33;;;15.60;18.80;;;;;;4950773;29;20506;-75
2022/06/11 01:09:28;;;;;;;4.37;3.27;;;15.70;17.40;;;;;;4950580;29;20873;-74
2022/06/11 01:12:12;;;;;;;4.80;3.70;;;15.70;16.70;;;;;;4950505;29;20458;-75
2022/06/11 01:14:43;;;;;;;5.83;3.60;;;15.80;17.30;;;;;;4962011;28;20929;-75
2022/06/11 01:17:33;;;;;;;4.73;3.40;;;15.90;16.10;;;;;;4962920;28;20415;-74
2022/06/11 01:20:07;;;;;;;4.20;3.37;;;15.80;15.70;;;;;;4967909;28;20431;-75
2022/06/11 01:23:05;;;;;;;5.13;3.57;;;15.80;14.30;;;;;;4969257;28;20801;-74
2022/06/11 01:25:51;;;;;;;3.90;3.27;;;15.80;15.40;;;;;;4970259;28;20411;-76
2022/06/11 01:28:54;;;;;;;6.40;4.13;;;15.70;16.90;;;;;;4964795;28;20466;-75
2022/06/11 01:31:43;;;;;;;4.77;3.57;;;15.60;18.30;;;;;;4969645;28;20989;-75
2022/06/11 01:34:34;;;;;;;6.10;3.80;;;15.70;18.50;;;;;;4969401;28;20426;-75
2022/06/11 01:37:30;;;;;;;5.13;3.60;;;15.60;18.30;;;;;;4968910;28;20435;-74
2022/06/11 01:40:05;;;;;;;4.50;3.10;;;15.60;21.20;;;;;;4966669;28;20420;-74
2022/06/11 01:42:41;;;;;;;4.50;3.67;;;15.60;20.20;;;;;;4969388;28;20498;-75
2022/06/11 01:45:17;;;;;;;3.93;3.40;;;15.50;20.90;;;;;;4964225;28;20523;-74
2022/06/11 01:47:44;;;;;;;3.83;3.40;;;15.50;21.10;;;;;;4967084;28;20435;-74
2022/06/11 01:50:12;;;;;;;4.70;3.47;;;15.50;23.10;;;;;;4967934;28;20469;-73
2022/06/11 01:53:13;;;;;;;7.40;3.60;;;15.40;23.30;;;;;;4968581;28;20891;-74
2022/06/11 01:55:54;;;;;;;5.20;3.33;;;15.40;23.40;;;;;;4970528;28;20418;-74
2022/06/11 01:58:44;;;;;;;14.00;4.60;;;15.50;24.10;;;;;;4969769;28;20414;-74
2022/06/11 02:01:40;;;;;;;5.93;3.40;;;15.40;24.60;;;;;;4969401;28;20951;-74
2022/06/11 02:04:36;;;;;;;5.77;3.40;;;15.40;25.50;;;;;;4968870;28;20799;-75
2022/06/11 02:07:08;;;;;;;3.63;3.27;;;15.50;25.40;;;;;;4968138;28;20585;-74
2022/06/11 02:09:43;;;;;;;7.33;3.57;;;15.40;25.80;;;;;;4971798;28;20956;-75
2022/06/11 02:12:28;;;;;;;16.03;3.70;;;15.30;27.90;;;;;;4968996;28;20426;-75
2022/06/11 02:14:56;;;;;;;3.57;3.23;;;15.30;29.10;;;;;;4959706;28;20576;-75
2022/06/11 02:17:26;;;;;;;5.10;3.43;;;15.20;31.50;;;;;;4954784;28;20957;-73
2022/06/11 02:20:01;;;;;;;4.50;3.23;;;15.10;33.10;;;;;;4949796;28;20409;-75
2022/06/11 02:22:51;;;;;;;10.83;3.70;;;15.10;32.30;;;;;;4947240;29;20519;-74
2022/06/11 02:25:27;;;;;;;8.23;3.57;;;15.10;33.10;;;;;;4948910;28;20422;-74
2022/06/11 02:27:58;;;;;;;4.87;4.10;;;15.00;35.30;;;;;;4950038;28;20561;-74
2022/06/11 02:30:26;;;;;;;5.70;4.10;;;14.90;38.10;;;;;;4950288;28;20538;-75
2022/06/11 02:32:52;;;;;;;8.07;3.80;;;14.90;42.00;;;;;;4948408;28;20496;-74
2022/06/11 02:35:46;;;;;;;7.10;3.47;;;14.80;41.90;;;;;;4949989;28;20502;-74
2022/06/11 02:38:15;;;;;;;4.97;3.50;;;14.70;42.20;;;;;;4950273;28;20412;-75
2022/06/11 02:40:49;;;;;;;5.37;3.50;;;14.70;41.90;;;;;;4954136;28;20423;-74
2022/06/11 02:43:15;;;;;;;4.30;3.40;;;14.80;42.10;;;;;;4958384;28;20419;-75
2022/06/11 02:45:40;;;;;;;7.30;3.70;;;15.00;40.00;;;;;;4980131;28;20419;-74
2022/06/11 02:48:06;;;;;;;3.90;3.23;;;15.10;42.30;;;;;;4952888;29;20181;-73
2022/06/11 02:50:35;;;;;;;4.47;3.70;;;15.10;42.10;;;;;;4952056;28;20235;-74
2022/06/11 02:53:02;;;;;;;5.40;3.70;;;15.10;42.20;;;;;;4952635;29;20462;-73
2022/06/11 02:55:29;;;;;;;4.63;3.10;;;15.10;42.20;;;;;;4952560;29;20888;-74
2022/06/11 02:57:55;;;;;;;5.20;3.40;;;15.10;42.20;;;;;;4951973;29;20448;-74
2022/06/11 03:00:26;;;;;;;6.57;3.43;;;15.10;42.20;;;;;;4953870;29;20420;-73
2022/06/11 03:02:52;;;;;;;11.00;4.10;;;15.10;42.20;;;;;;4952123;29;20419;-74
2022/06/11 03:05:22;;;;;;;5.47;3.50;;;15.20;42.30;;;;;;4953720;29;20949;-75
2022/06/11 03:07:49;;;;;;;4.60;3.40;;;15.20;42.30;;;;;;4952770;29;20352;-74
2022/06/11 03:10:16;;;;;;;6.33;4.00;;;15.20;42.20;;;;;;4953937;29;20471;-75
2022/06/11 03:12:42;;;;;;;3.60;3.30;;;15.20;44.90;;;;;;4952694;28;20442;-74
2022/06/11 03:15:08;;;;;;;5.60;3.87;;;15.20;42.20;;;;;;4960843;28;20887;-73
2022/06/11 03:17:34;;;;;;;6.17;3.70;;;15.20;42.10;;;;;;4956212;28;20557;-75
2022/06/11 03:20:00;;;;;;;6.00;4.10;;;15.30;42.40;;;;;;4951293;28;20430;-75
2022/06/11 03:22:26;;;;;;;4.73;3.40;;;15.20;42.20;;;;;;4952253;29;20180;-74
2022/06/11 03:24:52;;;;;;;4.50;3.63;;;15.20;42.30;;;;;;4953073;28;20995;-73
2022/06/11 03:27:18;;;;;;;6.47;3.73;;;15.20;42.40;;;;;;4963442;28;20522;-75
2022/06/11 03:29:45;;;;;;;6.77;3.37;;;15.30;42.30;;;;;;4972045;28;20239;-74
2022/06/11 03:32:11;;;;;;;7.87;4.07;;;15.20;42.20;;;;;;4971215;28;20176;-74
2022/06/11 03:34:37;;;;;;;4.70;3.90;;;15.10;42.20;;;;;;4970444;28;20725;-75
2022/06/11 03:37:03;;;;;;;4.60;3.43;;;15.10;42.20;;;;;;4972349;28;20238;-74
2022/06/11 03:39:29;;;;;;;4.67;3.37;;;15.10;42.20;;;;;;4971946;28;20168;-74
2022/06/11 03:41:55;;;;;;;4.30;3.40;;;15.20;42.30;;;;;;4971770;28;20407;-74
2022/06/11 03:44:21;;;;;;;5.33;3.33;;;15.20;42.20;;;;;;4963973;28;20256;-75
2022/06/11 03:46:47;;;;;;;5.50;3.13;;;15.30;42.30;;;;;;4960712;28;20778;-75
2022/06/11 03:49:13;;;;;;;4.07;3.50;;;15.30;42.40;;;;;;4951350;28;20426;-74
2022/06/11 03:51:39;;;;;;;7.40;3.80;;;15.30;42.30;;;;;;4951364;28;20698;-74
2022/06/11 03:54:07;;;;;;;4.57;3.63;;;15.30;42.40;;;;;;4952278;28;20185;-73
2022/06/11 03:56:33;;;;;;;6.57;3.67;;;15.30;42.40;;;;;;4951199;29;20565;-74
2022/06/11 03:58:59;;;;;;;4.50;3.40;;;15.30;42.40;;;;;;4952436;28;20421;-75
2022/06/11 04:01:24;;;;;;;3.53;3.23;;;15.30;42.30;;;;;;4952016;28;20446;-75
2022/06/11 04:03:57;;;;;;;5.20;3.90;;;15.30;42.30;;;;;;4951508;28;20570;-75
2022/06/11 04:06:36;;;;;;;7.93;3.57;;;15.20;42.40;;;;;;4960020;28;20279;-75
2022/06/11 04:09:05;;;;;;;7.40;3.93;;;15.10;42.30;;;;;;4970877;28;20447;-74
2022/06/11 04:11:31;;;;;;;4.93;3.57;;;15.10;42.40;;;;;;4970874;28;20446;-75
2022/06/11 04:13:56;;;;;;;7.40;3.90;;;15.00;42.20;;;;;;4967261;28;20499;-74
2022/06/11 04:16:42;;;;;;;4.80;3.37;;;15.00;42.20;;;;;;4958730;28;20200;-74
2022/06/11 04:19:20;;;;;;;7.77;3.57;;;15.00;42.50;;;;;;4950119;29;20243;-75
2022/06/11 04:21:47;;;;;;;5.00;3.20;;;15.00;42.30;;;;;;4951602;29;20915;-75
2022/06/11 04:24:13;;;;;;;7.50;3.50;;;15.00;42.30;;;;;;4954933;28;20422;-74
2022/06/11 04:26:45;;;;;;;6.57;3.73;;;15.10;42.30;;;;;;4969956;28;20972;-73
2022/06/11 04:29:16;;;;;;;5.80;3.90;;;15.10;42.30;;;;;;4971327;28;20412;-74
2022/06/11 04:31:42;;;;;;;5.53;4.00;;;15.10;42.30;;;;;;4970983;28;20887;-74
2022/06/11 04:34:09;;;;;;;10.40;3.67;;;14.90;42.10;;;;;;4969215;28;20421;-74
2022/06/11 04:36:35;;;;;;;3.80;3.47;;;14.90;45.60;;;;;;4970662;28;20411;-73
2022/06/11 04:39:03;;;;;;;9.03;3.83;;;14.90;45.40;;;;;;4970647;28;20399;-74
2022/06/11 04:41:28;;;;;;;6.13;3.90;;;14.90;44.00;;;;;;4970556;28;20256;-75
2022/06/11 04:43:54;;;;;;;7.63;3.60;;;15.00;42.70;;;;;;4970910;28;21359;-75
2022/06/11 04:46:20;;;;;;;4.37;3.30;;;15.20;42.70;;;;;;4970559;28;20197;-74
2022/06/11 04:48:46;;;;;;;4.53;3.60;;;15.40;42.50;;;;;;4950937;28;20621;-73
2022/06/11 04:51:13;;;;;;;6.93;3.60;;;15.40;42.50;;;;;;4950609;29;20531;-75
2022/06/11 04:53:40;;;;;;;4.97;3.67;;;15.50;45.20;;;;;;4949231;29;20223;-74
2022/06/11 04:56:06;;;;;;;7.23;3.90;;;15.60;42.60;;;;;;4950104;29;20556;-74
2022/06/11 04:58:31;;;;;;;4.57;3.17;;;15.70;42.70;;;;;;4951428;28;20416;-74
2022/06/11 05:00:57;;;;;;;7.80;3.40;;;15.80;42.70;;;;;;4950613;28;20413;-75
2022/06/11 05:03:22;;;;;;;6.23;3.60;;;15.90;42.80;;;;;;4950151;29;20188;-74
2022/06/11 05:05:48;;;;;;;6.30;3.50;;;16.00;42.80;;;;;;4949558;29;20263;-75
2022/06/11 05:08:15;;;;;;;7.33;3.77;;;16.00;42.40;;;;;;4950903;28;20201;-74
2022/06/11 05:10:42;;;;;;;3.53;3.23;;;16.10;41.60;;;;;;4951486;29;20455;-74
2022/06/11 05:13:09;;;;;;;5.47;3.53;;;16.20;43.10;;;;;;4950567;29;20419;-74
2022/06/11 05:15:40;;;;;;;3.60;3.20;;;16.20;41.40;;;;;;4962399;28;20505;-73
2022/06/11 05:18:06;;;;;;;3.27;2.80;;;16.30;42.10;;;;;;4950219;29;20463;-74
2022/06/11 05:20:31;;;;;;;4.20;3.10;;;16.40;37.30;;;;;;4949582;28;20920;-74
2022/06/11 05:22:57;;;;;;;6.30;3.17;;;16.50;33.00;;;;;;4950274;29;20177;-74
2022/06/11 05:25:22;;;;;;;4.20;3.37;;;16.60;31.00;;;;;;4951523;29;20180;-75
2022/06/11 05:27:48;;;;;;;4.00;3.20;;;16.70;31.00;;;;;;4965137;28;20212;-73
2022/06/11 05:30:20;;;;;;;7.30;3.13;;;16.80;26.40;;;;;;4970380;28;20203;-75
2022/06/11 05:32:46;;;;;;;3.57;3.27;;;17.00;26.90;;;;;;4969315;28;20478;-74
2022/06/11 05:35:21;;;;;;;4.50;3.30;;;17.10;25.20;;;;;;4970133;28;20777;-75
2022/06/11 05:37:49;;;;;;;4.23;3.40;;;17.20;22.10;;;;;;4968177;28;20469;-75
2022/06/11 05:40:17;;;;;;;6.03;3.17;;;17.40;22.00;;;;;;4968718;28;20836;-75
2022/06/11 05:42:47;;;;;;;3.70;3.27;;;17.50;20.70;;;;;;4969518;28;20842;-74
2022/06/11 05:45:18;;;;;;;5.10;3.53;;;17.70;19.50;;;;;;4961802;28;20455;-74
2022/06/11 05:47:45;;;;;;;6.50;3.63;;;17.80;16.70;;;;;;4952201;28;20977;-75
2022/06/11 05:50:14;;;;;;;4.00;3.60;;;17.90;15.50;;;;;;4950460;28;20496;-75
2022/06/11 05:52:45;;;;;;;6.03;3.50;;;18.00;12.20;;;;;;4949724;29;20424;-75
2022/06/11 05:55:13;;;;;;;4.90;3.20;;;18.10;10.50;;;;;;4950947;29;20412;-75
2022/06/11 05:57:39;;;;;;;4.87;3.67;;;18.20;8.00;;;;;;4962709;28;20545;-75
2022/06/11 06:00:09;;;;;;;5.30;3.40;;;18.30;8.80;;;;;;4970254;28;20466;-74
2022/06/11 06:02:35;;;;;;;5.40;3.80;;;18.40;8.40;;;;;;4968969;28;20227;-75
2022/06/11 06:05:00;;;;;;;5.30;3.90;;;18.40;5.10;;;;;;4967445;28;20933;-74
2022/06/11 06:07:26;;;;;;;5.93;4.17;;;18.50;5.90;;;;;;4961403;28;20309;-74
2022/06/11 06:09:51;;;;;;;6.53;4.90;;;18.50;3.80;;;;;;4969314;28;20253;-75
2022/06/11 06:12:17;;;;;;;9.13;4.60;;;18.50;3.90;;;;;;4968588;28;20714;-75
2022/06/11 06:14:44;;;;;;;5.30;4.20;;;18.40;4.40;;;;;;4961253;28;20192;-75
2022/06/11 06:17:09;;;;;;;6.10;4.27;;;18.50;4.90;;;;;;4956417;28;20479;-75
2022/06/11 06:19:35;;;;;;;6.53;4.43;;;18.50;4.70;;;;;;4948326;28;20526;-73
2022/06/11 06:22:04;;;;;;;6.30;4.67;;;18.60;4.50;;;;;;4948424;28;20252;-77
2022/06/11 06:24:31;;;;;;;8.30;4.63;;;18.50;6.50;;;;;;4950024;29;20544;-74
2022/06/11 06:26:56;;;;;;;4.63;4.20;;;18.60;7.00;;;;;;4950245;29;20444;-75
2022/06/11 06:29:21;;;;;;;8.20;4.60;;;18.70;4.60;;;;;;4950050;28;20832;-75
2022/06/11 06:31:47;;;;;;;8.23;5.00;;;18.70;5.90;;;;;;4949722;29;20259;-75
2022/06/11 06:34:13;;;;;;;10.43;5.20;;;18.60;6.10;;;;;;4959123;28;20570;-74
2022/06/11 06:36:38;;;;;;;10.03;4.83;;;18.70;5.80;;;;;;4969936;28;20195;-75
2022/06/11 06:39:04;;;;;;;6.63;4.77;;;18.80;6.20;;;;;;4969517;28;20236;-75
2022/06/11 06:41:29;;;;;;;6.80;4.60;;;19.00;5.00;;;;;;4969331;28;20175;-74
2022/06/11 06:43:55;;;;;;;5.83;4.23;;;19.20;3.70;;;;;;4970053;28;20172;-75
2022/06/11 06:46:21;;;;;;;6.27;4.77;;;19.40;3.50;;;;;;4968876;28;20196;-75
2022/06/11 06:48:47;;;;;;;8.87;4.63;;;19.40;1.00;;;;;;4949914;28;20173;-75
2022/06/11 06:51:13;;;;;;;9.70;4.87;;;19.50;1.00;;;;;;4948414;29;20475;-74
2022/06/11 06:53:40;;;;;;;5.60;4.13;;;19.60;1.00;;;;;;4950117;28;20648;-74
2022/06/11 06:56:07;;;;;;;7.20;4.60;;;19.70;1.00;;;;;;4950391;29;20857;-75
2022/06/11 06:58:33;;;;;;;6.00;4.40;;;19.90;1.00;;;;;;4950489;29;20412;-74
2022/06/11 07:00:59;;;;;;;7.13;4.20;;;20.10;1.00;;;;;;4949839;28;20491;-75
2022/06/11 07:03:25;;;;;;;7.67;4.60;;;20.30;1.00;;;;;;4949631;29;20303;-74
2022/06/11 07:05:50;;;;;;;9.93;4.80;;;20.40;1.00;;;;;;4950501;29;20499;-75
2022/06/11 07:08:16;;;;;;;5.40;4.40;;;20.30;1.00;;;;;;4948530;28;20186;-75
2022/06/11 07:10:48;;;;;;;8.63;4.70;;;20.50;1.00;;;;;;4950529;29;20223;-75
2022/06/11 07:13:13;;;;;;;7.83;4.60;;;20.60;1.00;;;;;;4950210;28;20459;-75
2022/06/11 07:15:41;;;;;;;8.00;4.27;;;20.80;1.00;;;;;;4959717;28;20407;-74
2022/06/11 07:18:35;;;;;;;5.80;4.53;;;21.00;1.00;;;;;;4948104;29;20216;-75
2022/06/11 07:21:06;;;;;;;8.23;4.67;;;21.40;1.00;;;;;;4948547;28;20433;-75
2022/06/11 07:23:39;;;;;;;7.13;4.20;;;21.40;1.00;;;;;;4949717;29;20929;-75
2022/06/11 07:26:11;;;;;;;6.37;4.20;;;21.50;1.00;;;;;;4954288;28;20518;-76
2022/06/11 07:28:44;;;;;;;7.07;4.77;;;21.70;1.00;;;;;;4972622;28;20510;-75
2022/06/11 07:31:10;;;;;;;8.37;3.93;;;21.80;1.00;;;;;;4972669;28;21031;-75
2022/06/11 07:33:35;;;;;;;7.33;4.50;;;21.90;1.00;;;;;;4972059;28;20415;-75
2022/06/11 07:36:01;;;;;;;8.00;4.20;;;22.40;1.00;;;;;;4972674;28;20521;-75
2022/06/11 07:38:27;;;;;;;6.30;3.90;;;22.40;1.00;;;;;;4972503;28;20168;-76
2022/06/11 07:40:53;;;;;;;9.13;4.40;;;22.70;1.00;;;;;;4972633;28;20730;-73
2022/06/11 07:43:18;;;;;;;6.97;4.30;;;22.80;1.00;;;;;;4972537;28;20306;-74
2022/06/11 07:45:45;;;;;;;6.60;4.10;;;22.70;1.00;;;;;;4964614;28;20651;-75
2022/06/11 07:48:11;;;;;;;7.50;3.80;;;22.80;1.00;;;;;;4971610;28;20175;-75
2022/06/11 07:50:40;;;;;;;8.30;4.00;;;23.10;1.00;;;;;;4972362;28;20454;-74
2022/06/11 07:53:07;;;;;;;6.60;4.37;;;23.30;1.00;;;;;;4971581;28;20540;-75
2022/06/11 07:55:34;;;;;;;7.50;3.63;;;23.60;1.00;;;;;;4972404;28;20822;-74
2022/06/11 07:58:00;;;;;;;7.47;4.10;;;23.60;1.00;;;;;;4974880;28;20434;-75
2022/06/11 08:00:33;;;;;;;5.80;4.20;;;23.90;1.00;;;;;;4973089;28;20520;-76
2022/06/11 08:02:59;;;;;;;6.83;4.27;;;24.20;1.00;;;;;;4971022;28;20420;-74
2022/06/11 08:05:24;;;;;;;14.40;3.80;;;24.40;1.00;;;;;;4972100;28;20462;-74
2022/06/11 08:07:53;;;;;;;4.10;3.57;;;24.70;1.00;;;;;;4971440;28;20435;-75
2022/06/11 08:10:22;;;;;;;9.53;4.53;;;24.70;1.00;;;;;;4970896;28;20305;-75
2022/06/11 08:12:47;;;;;;;10.57;4.20;;;24.80;1.00;;;;;;4971631;28;20411;-75
2022/06/11 08:15:13;;;;;;;6.30;3.90;;;24.80;1.00;;;;;;4964065;28;20474;-75
2022/06/11 08:17:40;;;;;;;9.60;3.73;;;24.70;1.00;;;;;;4955211;28;20218;-75
2022/06/11 08:20:07;;;;;;;7.80;4.20;;;24.60;1.00;;;;;;4952387;28;20619;-76
2022/06/11 08:22:33;;;;;;;7.90;4.43;;;25.00;1.00;;;;;;4950503;28;20763;-75
2022/06/11 08:24:59;;;;;;;5.20;3.87;;;25.20;1.00;;;;;;4952783;28;20416;-75
2022/06/11 08:27:25;;;;;;;6.47;3.90;;;25.50;1.00;;;;;;4952626;28;20279;-75
2022/06/11 08:29:51;;;;;;;7.67;4.60;;;25.90;1.00;;;;;;4952743;29;20573;-75
2022/06/11 08:32:16;;;;;;;5.47;3.67;;;26.20;1.00;;;;;;4962981;28;20407;-75
2022/06/11 08:34:45;;;;;;;7.67;3.80;;;26.60;1.00;;;;;;4971332;28;20167;-76
2022/06/11 08:37:11;;;;;;;8.07;3.83;;;26.80;1.00;;;;;;4968977;28;20187;-75
2022/06/11 08:39:37;;;;;;;7.37;3.37;;;26.70;1.00;;;;;;4971934;28;20706;-76
2022/06/11 08:42:03;;;;;;;8.17;3.73;;;26.80;1.00;;;;;;4971670;28;20172;-76
2022/06/11 08:44:33;;;;;;;8.90;3.80;;;26.80;1.00;;;;;;4976704;28;20179;-76
2022/06/11 08:47:03;;;;;;;14.67;3.80;;;26.80;1.00;;;;;;4979738;28;20453;-76
2022/06/11 08:49:43;;;;;;;6.27;3.33;;;26.60;1.00;;;;;;4971110;28;20414;-76
2022/06/11 08:52:24;;;;;;;8.00;3.37;;;26.50;1.00;;;;;;4970783;28;20421;-76
2022/06/11 08:54:50;;;;;;;6.00;3.30;;;27.20;1.00;;;;;;4971727;28;21005;-75
2022/06/11 08:57:43;;;;;;;5.77;3.57;;;27.50;1.00;;;;;;4969772;28;20437;-75
2022/06/11 09:00:08;;;;;;;4.60;3.27;;;27.80;1.00;;;;;;4970235;28;20217;-76
2022/06/11 09:02:46;;;;;;;4.00;2.90;;;28.00;1.00;;;;;;4970483;28;20822;-76
2022/06/11 09:05:49;;;;;;;5.30;3.00;;;28.40;1.00;;;;;;4971174;28;20187;-75
2022/06/11 09:08:39;;;;;;;9.03;3.00;;;28.90;1.00;;;;;;4970831;28;20435;-76
2022/06/11 09:11:31;;;;;;;6.27;2.80;;;29.60;1.00;;;;;;4969382;28;20226;-76
2022/06/11 09:14:04;;;;;;;7.37;3.30;;;30.50;1.00;;;;;;4967904;28;20487;-76
2022/06/11 09:17:02;;;;;;;4.15;2.63;;;31.80;1.00;;;;;;4959877;28;20207;-75
2022/06/11 09:19:42;;;;;;;5.43;2.70;;;32.30;1.00;;;;;;4928190;29;20275;-77
2022/06/11 09:22:21;;;;;;;4.20;2.55;;;32.50;1.00;;;;;;4950639;29;20176;-76
2022/06/11 09:25:04;;;;;;;5.25;2.92;;;33.50;1.00;;;;;;4951818;29;20195;-77
2022/06/11 09:27:50;;;;;;;4.72;2.80;;;34.90;1.00;;;;;;4958644;28;20665;-77
2022/06/11 09:30:25;;;;;;;4.88;2.28;;;36.30;1.00;;;;;;4971049;28;20300;-76
2022/06/11 09:33:17;;;;;;;5.28;2.60;;;37.00;1.00;;;;;;4969330;28;20174;-77
2022/06/11 09:35:56;;;;;;;10.23;3.30;;;37.90;1.00;;;;;;4970844;28;20246;-77
2022/06/11 09:38:59;;;;;;;4.43;2.60;;;38.00;1.00;;;;;;4970400;28;20250;-76
2022/06/11 09:41:50;;;;;;;4.75;2.35;;;36.00;1.00;;;;;;4970355;28;20249;-76
2022/06/11 09:44:27;;;;;;;5.22;2.10;;;35.20;1.00;;;;;;4955466;28;20211;-76
2022/06/11 09:46:59;;;;;;;5.20;2.60;;;35.90;1.00;;;;;;4959345;28;20226;-77
2022/06/11 09:49:58;;;;;;;5.55;2.63;;;36.40;1.00;;;;;;4950242;29;20176;-76
2022/06/11 09:52:46;;;;;;;4.88;2.25;;;35.10;1.00;;;;;;4950526;29;20534;-75
2022/06/11 09:55:40;;;;;;;4.15;2.50;;;35.30;1.00;;;;;;4951428;29;20591;-77
2022/06/11 09:58:33;;;;;;;4.88;2.38;;;36.60;1.00;;;;;;4951040;29;20191;-77
2022/06/11 10:01:03;;;;;;;5.43;2.28;;;38.00;1.00;;;;;;4966045;28;20179;-77
2022/06/11 10:03:38;;;;;;;5.40;2.40;;;39.40;1.00;;;;;;4969618;28;20176;-77
2022/06/11 10:06:20;;;;;;;3.63;1.90;;;39.80;1.00;;;;;;4969664;28;20214;-77
2022/06/11 10:08:48;;;;;;;4.38;2.30;;;39.60;1.00;;;;;;4971210;28;20261;-76
2022/06/11 10:11:45;;;;;;;4.00;2.10;;;38.50;1.00;;;;;;4987793;28;20210;-77
2022/06/11 10:14:31;;;;;;;7.22;2.40;;;36.40;1.00;;;;;;4975308;28;20191;-78
2022/06/11 10:17:34;;;;;;;6.30;2.33;;;35.50;1.00;;;;;;4959070;28;20457;-77
2022/06/11 10:20:08;;;;;;;4.85;2.33;;;37.20;1.00;;;;;;4949115;29;20255;-77
2022/06/11 10:23:01;;;;;;;4.35;2.50;;;38.50;1.00;;;;;;4949686;29;20179;-76
2022/06/11 10:25:40;;;;;;;7.15;2.75;;;39.70;1.00;;;;;;4951130;29;20172;-77
2022/06/11 10:28:27;;;;;;;4.43;2.30;;;39.80;1.00;;;;;;4950825;29;20480;-78
2022/06/11 10:31:02;;;;;;;6.22;2.45;;;39.40;1.00;;;;;;4959381;28;20226;-75
2022/06/11 10:33:49;;;;;;;4.78;2.70;;;39.40;1.00;;;;;;4969407;28;20171;-76
2022/06/11 10:36:32;;;;;;;4.68;2.38;;;38.90;1.00;;;;;;4969937;28;20206;-77
2022/06/11 10:39:03;;;;;;;5.72;2.20;;;38.30;1.00;;;;;;4969458;28;20233;-76
2022/06/11 10:41:41;;;;;;;8.07;2.78;;;36.90;1.00;;;;;;4969550;28;20167;-76
2022/06/11 10:44:38;;;;;;;7.93;2.58;;;35.30;1.00;;;;;;4973868;28;20202;-76
2022/06/11 10:47:35;;;;;;;4.18;2.38;;;34.20;1.00;;;;;;4962267;28;20267;-75
2022/06/11 10:50:24;;;;;;;3.92;2.35;;;35.40;1.00;;;;;;4968671;28;20219;-75
2022/06/11 10:53:07;;;;;;;3.25;1.98;;;37.70;1.00;;;;;;4968664;28;20262;-77
2022/06/11 10:55:41;;;;;;;7.10;2.22;;;39.10;1.00;;;;;;4970070;28;20175;-76
2022/06/11 10:58:45;;;;;;;4.38;2.28;;;38.50;1.00;;;;;;4970014;28;20250;-76
2022/06/11 11:01:25;;;;;;;5.57;2.40;;;37.50;1.00;;;;;;4972748;28;20250;-77
2022/06/11 11:04:21;;;;;;;5.60;2.50;;;38.10;1.00;;;;;;4972773;28;20498;-76
2022/06/11 11:07:04;;;;;;;6.72;2.33;;;39.50;1.00;;;;;;4973777;28;20281;-76
2022/06/11 11:09:30;;;;;;;4.63;2.38;;;39.60;1.00;;;;;;4973342;28;20519;-76
2022/06/11 11:12:00;;;;;;;2.90;1.90;;;38.30;1.00;;;;;;4971537;28;20218;-76
2022/06/11 11:14:33;;;;;;;6.38;2.75;;;37.60;1.00;;;;;;4973480;28;20183;-76
2022/06/11 11:17:00;;;;;;;6.70;2.40;;;37.60;1.00;;;;;;4963913;28;20642;-77
2022/06/11 11:19:31;;;;;;;4.90;2.25;;;36.70;1.00;;;;;;4972216;28;20176;-76
2022/06/11 11:22:10;;;;;;;2.95;1.90;;;37.80;1.00;;;;;;4971374;28;20675;-77
2022/06/11 11:24:44;;;;;;;3.60;2.05;;;38.40;1.00;;;;;;4971717;28;20677;-76
2022/06/11 11:27:29;;;;;;;9.00;2.30;;;39.20;1.00;;;;;;4973112;28;20203;-77
2022/06/11 11:29:59;;;;;;;5.65;2.55;;;38.40;1.00;;;;;;4972981;28;20195;-75
2022/06/11 11:32:33;;;;;;;3.38;1.90;;;39.10;1.00;;;;;;4972127;28;20298;-77
2022/06/11 11:35:21;;;;;;;4.15;2.10;;;38.90;1.00;;;;;;4972457;28;20199;-76
2022/06/11 11:38:01;;;;;;;8.13;2.38;;;39.10;1.00;;;;;;4972374;28;20217;-77
2022/06/11 11:40:33;;;;;;;6.20;2.40;;;40.20;1.00;;;;;;4971894;28;20545;-77
2022/06/11 11:43:05;;;;;;;3.97;2.17;;;41.00;1.00;;;;;;4971863;28;20207;-77
2022/06/11 11:45:55;;;;;;;3.28;2.13;;;42.00;1.00;;;;;;4964798;28;20283;-77
2022/06/11 11:48:35;;;;;;;4.30;2.13;;;41.70;1.00;;;;;;4951270;29;20198;-77
2022/06/11 11:51:09;;;;;;;4.15;2.30;;;40.20;1.00;;;;;;4964984;28;20634;-76
2022/06/11 11:53:57;;;;;;;6.15;2.55;;;38.30;1.00;;;;;;4970921;28;20194;-76
2022/06/11 11:56:25;;;;;;;4.18;2.10;;;36.60;1.00;;;;;;4972257;28;20192;-75
2022/06/11 11:58:56;;;;;;;8.02;2.20;;;35.30;1.00;;;;;;4971102;28;20195;-76
2022/06/11 12:01:23;;;;;;;7.15;2.50;;;34.50;1.00;;;;;;4972048;28;20519;-76
2022/06/11 12:04:18;;;;;;;5.82;2.30;;;34.00;1.00;;;;;;4971614;28;20184;-74
2022/06/11 12:06:56;;;;;;;4.03;2.30;;;33.80;1.00;;;;;;4964357;28;20203;-76
2022/06/11 12:09:32;;;;;;;4.60;2.30;;;34.10;1.00;;;;;;4971510;28;20171;-76
2022/06/11 12:12:05;;;;;;;6.38;2.47;;;34.10;1.00;;;;;;4970762;28;20516;-76
2022/06/11 12:14:36;;;;;;;4.53;2.25;;;34.00;1.00;;;;;;4964710;28;20176;-76
2022/06/11 12:17:17;;;;;;;4.60;2.17;;;35.60;1.00;;;;;;4964743;28;20187;-76
2022/06/11 12:19:48;;;;;;;6.90;2.42;;;37.90;1.00;;;;;;4970067;28;20598;-77
2022/06/11 12:22:26;;;;;;;4.13;2.10;;;39.20;1.00;;;;;;4971408;28;20286;-76
2022/06/11 12:24:54;;;;;;;3.92;2.10;;;40.50;1.00;;;;;;4972130;28;20167;-77
2022/06/11 12:27:32;;;;;;;5.88;2.30;;;42.10;1.00;;;;;;4971888;28;20271;-76
2022/06/11 12:30:02;;;;;;;4.65;2.08;;;43.80;1.00;;;;;;4971827;28;20186;-76
2022/06/11 12:32:30;;;;;;;5.10;1.90;;;43.60;1.00;;;;;;4971155;28;20576;-77
2022/06/11 12:34:59;;;;;;;4.35;1.98;;;41.10;1.00;;;;;;4971165;28;20182;-77
2022/06/11 12:37:46;;;;;;;3.15;2.00;;;38.70;1.00;;;;;;4971493;28;20645;-76
2022/06/11 12:40:43;;;;;;;5.50;2.40;;;36.60;1.00;;;;;;4971765;28;20243;-74
2022/06/11 12:43:23;;;;;;;5.88;3.03;;;34.80;1.00;;;;;;4967408;28;20227;-76
2022/06/11 12:46:29;;;;;;;3.60;2.30;;;34.20;1.00;;;;;;4977516;28;20175;-76
2022/06/11 12:49:19;;;;;;;8.45;2.40;;;36.40;1.00;;;;;;4951413;29;20176;-77
2022/06/11 12:52:12;;;;;;;4.57;2.25;;;38.80;1.00;;;;;;4951778;29;20199;-76
2022/06/11 12:54:50;;;;;;;4.32;2.05;;;39.30;1.00;;;;;;4952022;29;20175;-76
2022/06/11 12:58:05;;;;;;;3.42;1.90;;;38.10;1.00;;;;;;4952137;29;20191;-77
2022/06/11 13:00:54;;;;;;;2.88;2.10;;;36.70;1.00;;;;;;4949230;29;20199;-77
2022/06/11 13:04:10;;;;;;;6.53;2.00;;;37.30;1.00;;;;;;4951012;29;20230;-75
2022/06/11 13:07:04;;;;;;;4.07;2.40;;;36.20;1.00;;;;;;4951823;29;20196;-76
2022/06/11 13:09:29;;;;;;;5.95;2.38;;;34.60;1.00;;;;;;4950202;29;20504;-76
2022/06/11 13:12:16;;;;;;;3.10;1.90;;;33.90;1.00;;;;;;4951402;29;20199;-76
2022/06/11 13:15:15;;;;;;;3.05;2.00;;;33.30;1.00;;;;;;4955944;28;20495;-76
2022/06/11 13:18:38;;;;;;;6.18;2.30;;;32.70;1.00;;;;;;4953634;28;20604;-76
2022/06/11 13:21:24;;;;;;;4.05;2.17;;;35.70;1.00;;;;;;4913178;29;20218;-76
2022/06/11 13:24:33;;;;;;;3.08;2.10;;;38.80;1.00;;;;;;4929305;29;20183;-77
2022/06/11 13:27:05;;;;;;;3.10;1.80;;;41.20;1.00;;;;;;4959293;28;20333;-76
2022/06/11 13:29:52;;;;;;;5.22;2.40;;;43.20;1.00;;;;;;4970860;28;20743;-77